Terminal Aerodrome Forecast
Issued by NWS

Home | Current Version | Previous Version | Text Only | Print | Product List | Glossary On
Versions: 1 2 3 4 5 6 7 8 9 10 11 12 13 14 15 16 17 18 19
000
FTUS43 KAPX 300617 AAA
TAFAPN
TAF AMD
KAPN 300617Z 3006/3106 09009KT P6SM OVC120
     FM301400 11011G19KT P6SM OVC070
     FM302000 09012G20KT 6SM -RA OVC025
     FM310000 08014G23KT 1 1/2SM -RASN OVC025
     FM310400 08014G23KT 3SM -RASN BR OVC015=

USA.gov is the U.S. government's official web portal to all federal, state and local government web resources and services.